Data for 03/03/2015

Time Sea-Level Adjusted Pressure Absolute Pressure Temperature Relative Humidity Dew Point   
(mb) (inHg) (mb) (inHg) (C) (F) (%) (C) (F)
00:05 1014 29.94 843 24.89 -8.7 16.3 83 -11.1 11.9
00:10 1014 29.94 843 24.89 -8.9 16 82 -11.4 11.5
00:15 1014 29.94 843 24.89 -9.1 15.6 82 -11.6 11.1
00:20 1014 29.94 843 24.89 -9.2 15.4 79 -12.2 10
00:25 1014 29.94 843 24.89 -9.3 15.2 78 -12.4 9.7
00:30 1014 29.94 843 24.89 -9.3 15.2 79 -12.3 9.8
00:35 1014 29.94 844 24.92 -9.3 15.3 79 -12.3 9.9
00:40 1015 29.97 844 24.92 -9.4 15.2 79 -12.3 9.8
00:45 1015 29.97 844 24.92 -9.5 14.9 79 -12.5 9.5
00:50 1015 29.97 844 24.92 -9.7 14.5 79 -12.7 9.1
00:55 1015 29.97 844 24.92 -9.9 14.2 78 -13.1 8.4
01:00 1015 29.97 844 24.92 -10 14 79 -13 8.6
01:05 1015 29.97 844 24.92 -10.1 13.9 79 -13.1 8.4
01:10 1015 29.97 844 24.92 -10.2 13.7 79 -13.1 8.4
01:15 1015 29.97 844 24.92 -10.3 13.6 79 -13.3 8.1
01:20 1015 29.97 844 24.92 -10.3 13.5 79 -13.2 8.2
01:25 1015 29.97 844 24.92 -10.4 13.4 78 -13.4 7.8
01:30 1015 29.97 844 24.92 -10.4 13.4 80 -13.2 8.3
01:35 1015 29.97 844 24.92 -10.3 13.4 80 -13.2 8.3
01:40 1015 29.97 844 24.92 -10.4 13.3 80 -13.3 8.1
01:45 1015 29.97 844 24.92 -10.5 13.2 79 -13.4 7.9
01:50 1015 29.97 844 24.92 -10.4 13.2 79 -13.4 7.8
01:55 1015 29.97 845 24.95 -10.5 13.1 79 -13.5 7.6
02:00 1015 29.97 844 24.92 -10.6 12.9 79 -13.6 7.6
02:05 1015 29.97 844 24.92 -10.7 12.8 80 -13.5 7.6
02:10 1015 29.97 844 24.92 -10.7 12.7 79 -13.6 7.4
02:15 1015 29.97 844 24.92 -10.8 12.6 79 -13.8 7.2
02:20 1015 29.97 845 24.95 -10.8 12.5 79 -13.7 7.3
02:25 1015 29.97 845 24.95 -10.9 12.4 79 -13.8 7.1
02:30 1015 29.97 845 24.95 -10.9 12.4 77 -14.1 6.6
02:35 1016 30 845 24.95 -11 12.3 77 -14.2 6.5
02:40 1016 30 845 24.95 -11 12.1 77 -14.3 6.2
02:45 1016 30 845 24.95 -11.1 12 77 -14.4 6.1
02:50 1016 30 845 24.95 -11.1 12 77 -14.4 6
02:55 1016 30 845 24.95 -11.2 11.9 77 -14.5 6
03:00 1016 30 845 24.95 -11.2 11.8 78 -14.3 6.2
03:05 1016 30 845 24.95 -11.3 11.8 78 -14.3 6.2
03:10 1016 30 845 24.95 -11.3 11.7 78 -14.3 6.2
03:15 1016 30 845 24.95 -11.3 11.7 78 -14.3 6.2
03:20 1016 30 845 24.95 -11.3 11.6 80 -14.1 6.6
03:25 1016 30 845 24.95 -11.3 11.6 80 -14.2 6.5
03:30 1016 30 845 24.95 -11.4 11.5 81 -14.1 6.6
03:35 1016 30 845 24.95 -11.4 11.4 79 -14.4 6
03:40 1016 30 845 24.95 -11.4 11.5 78 -14.5 6
03:45 1016 30 845 24.95 -11.4 11.5 76 -14.8 5.4
03:50 1016 30 845 24.95 -11.3 11.6 75 -14.9 5.1
03:55 1016 30 845 24.95 -11.3 11.7 74 -15.1 4.7
04:00 1016 30 845 24.95 -11.3 11.7 74 -15 5
04:05 1016 30 845 24.95 -11.3 11.6 75 -15 5.1
04:10 1016 30 845 24.95 -11.4 11.5 74 -15.2 4.7
04:15 1016 30 845 24.95 -11.4 11.4 73 -15.3 4.4
04:20 1016 30 845 24.95 -11.4 11.4 66 -16.6 2.2
04:25 1016 30 845 24.95 -11.4 11.6 68 -16.1 3
04:30 1016 30 845 24.95 -11.4 11.5 66 -16.6 2.2
04:35 1016 30 845 24.95 -11.4 11.4 63 -17.1 1.2
04:40 1016 30 845 24.95 -11.4 11.5 62 -17.2 1
04:45 1016 30 845 24.95 -11.5 11.4 61 -17.5 0.5
04:50 1016 30 845 24.95 -11.5 11.4 61 -17.5 0.6
04:55 1016 30 845 24.95 -11.5 11.2 61 -17.7 0.1
05:00 1016 30 845 24.95 -11.6 11.2 62 -17.5 0.5
05:05 1016 30 845 24.95 -11.6 11.1 61 -17.7 0.1
05:10 1016 30 845 24.95 -11.7 11 60 -18 -0.4
05:15 1016 30 846 24.98 -11.7 11 60 -17.9 -0.2
05:20 1017 30.03 846 24.98 -11.8 10.9 61 -17.9 -0.2
05:25 1017 30.03 846 24.98 -11.8 10.7 61 -18 -0.3
05:30 1017 30.03 846 24.98 -11.9 10.6 59 -18.4 -1.1
05:35 1017 30.03 846 24.98 -12 10.5 60 -18.3 -0.9
05:40 1017 30.03 846 24.98 -12.1 10.2 61 -18.1 -0.6
05:45 1017 30.03 846 24.98 -12.3 9.9 64 -17.7 0.1
05:50 1017 30.03 846 24.98 -12.6 9.4 68 -17.4 0.8
05:55 1017 30.03 846 24.98 -12.8 9 68 -17.6 0.3
06:00 1017 30.03 846 24.98 -12.9 8.7 69 -17.5 0.4
06:05 1017 30.03 846 24.98 -13.1 8.5 71 -17.4 0.7
06:10 1017 30.03 846 24.98 -13.2 8.2 73 -17.1 1.2
06:15 1017 30.03 846 24.98 -13.3 8 75 -16.9 1.6
06:20 1017 30.03 846 24.98 -13.5 7.8 73 -17.3 0.8
06:25 1017 30.03 846 24.98 -13.5 7.7 72 -17.5 0.5
06:30 1017 30.03 846 24.98 -13.5 7.8 71 -17.7 0.1
06:35 1017 30.03 846 24.98 -13.5 7.8 69 -18 -0.4
06:40 1017 30.03 846 24.98 -13.5 7.7 68 -18.3 -0.9
06:45 1017 30.03 847 25.01 -13.5 7.8 66 -18.5 -1.2
06:50 1017 30.03 847 25.01 -13.5 7.8 66 -18.4 -1.2
06:55 1017 30.03 847 25.01 -13.5 7.8 66 -18.6 -1.4
07:00 1017 30.03 847 25.01 -13.4 7.8 67 -18.4 -1.1
07:05 1018 30.06 847 25.01 -13.5 7.7 64 -18.9 -2
07:10 1018 30.06 847 25.01 -13.6 7.6 67 -18.4 -1.2
07:15 1018 30.06 847 25.01 -13.7 7.4 62 -19.4 -2.9
07:20 1018 30.06 847 25.01 -13.7 7.3 62 -19.6 -3.2
07:25 1018 30.06 847 25.01 -13.7 7.3 65 -19 -2.2
07:30 1018 30.06 847 25.01 -13.7 7.3 66 -18.8 -1.8
07:35 1018 30.06 847 25.01 -13.8 7.1 68 -18.6 -1.5
07:40 1018 30.06 847 25.01 -13.9 7 62 -19.7 -3.4
07:45 1018 30.06 847 25.01 -13.9 6.9 61 -19.9 -3.8
07:50 1018 30.06 847 25.01 -14 6.8 63 -19.6 -3.3
07:55 1018 30.06 847 25.01 -14 6.9 66 -19 -2.3
08:00 1018 30.06 847 25.01 -14 6.9 67 -18.9 -1.9
08:05 1018 30.06 847 25.01 -14.1 6.6 69 -18.6 -1.4
08:10 1018 30.06 847 25.01 -14.2 6.5 76 -17.5 0.4
08:15 1018 30.06 847 25.01 -14.2 6.5 80 -16.9 1.6
08:20 1018 30.06 847 25.01 -14.2 6.5 79 -17 1.4
08:25 1018 30.06 847 25.01 -14.2 6.4 80 -17 1.4
08:30 1018 30.06 847 25.01 -14.1 6.6 78 -17.2 1.1
08:35 1018 30.06 847 25.01 -14 6.7 78 -17.1 1.3
08:40 1018 30.06 847 25.01 -14 6.9 75 -17.5 0.5
08:45 1018 30.06 847 25.01 -14.1 6.7 78 -17.1 1.2
08:50 1018 30.06 847 25.01 -13.7 7.4 74 -17.4 0.7
08:55 1018 30.06 847 25.01 -13.6 7.6 73 -17.4 0.7
09:00 1018 30.06 847 25.01 -13.5 7.7 69 -18.1 -0.6
09:05 1018 30.06 847 25.01 -13.2 8.2 59 -19.5 -3.2
09:10 1018 30.06 847 25.01 -13.5 7.7 72 -17.5 0.4
09:15 1018 30.06 847 25.01 -14.3 6.3 72 -18.3 -0.9
09:20 1018 30.06 847 25.01 -14.6 5.8 74 -18.2 -0.8
09:25 1018 30.06 847 25.01 -14.5 5.8 74 -18.2 -0.7
09:30 1018 30.06 847 25.01 -14.5 5.8 75 -18 -0.4
09:35 1018 30.06 847 25.01 -14.4 6.1 73 -18.2 -0.7
09:40 1018 30.06 848 25.04 -14.4 6.1 73 -18.3 -0.9
09:45 1018 30.06 848 25.04 -14.3 6.3 69 -18.8 -1.8
09:50 1018 30.06 848 25.04 -14.2 6.5 68 -18.9 -2.1
09:55 1019 30.09 848 25.04 -14.1 6.5 66 -19.1 -2.4
10:00 1019 30.09 848 25.04 -14 6.9 65 -19.2 -2.5
10:05 1019 30.09 848 25.04 -13.5 7.8 65 -18.8 -1.8
10:10 1018 30.06 848 25.04 -13.7 7.4 64 -19.2 -2.6
10:15 1019 30.09 848 25.04 -13.3 8.1 64 -18.8 -1.8
10:20 1019 30.09 848 25.04 -13.2 8.3 63 -18.8 -1.9
10:25 1019 30.09 848 25.04 -13.6 7.6 66 -18.6 -1.5
10:30 1019 30.09 848 25.04 -13.5 7.6 65 -18.8 -1.9
10:35 1019 30.09 848 25.04 -13.3 8 60 -19.4 -3
10:40 1019 30.09 848 25.04 -13.5 7.7 61 -19.5 -3.2
10:45 1019 30.09 848 25.04 -13.3 8.1 63 -18.9 -2.1
10:50 1019 30.09 848 25.04 -13.4 7.8 63 -19.1 -2.4
10:55 1019 30.09 848 25.04 -13.6 7.5 61 -19.7 -3.4
11:00 1018 30.06 848 25.04 -13.6 7.6 64 -19 -2.2
11:05 1018 30.06 848 25.04 -13.4 7.8 63 -19 -2.2
11:10 1018 30.06 848 25.04 -12.6 9.2 59 -19.2 -2.5
11:15 1019 30.09 848 25.04 -12.6 9.3 60 -18.9 -2
11:20 1019 30.09 848 25.04 -13 8.5 60 -19.3 -2.7
11:25 1019 30.09 848 25.04 -12.9 8.7 60 -19.1 -2.4
11:30 1019 30.09 848 25.04 -12.6 9.4 57 -19.4 -2.8
11:35 1018 30.06 848 25.04 -12.9 8.8 60 -19.2 -2.6
11:40 1018 30.06 848 25.04 -13.1 8.4 60 -19.3 -2.8
11:45 1018 30.06 848 25.04 -13.2 8.3 60 -19.4 -3
11:50 1018 30.06 848 25.04 -13.1 8.4 59 -19.5 -3.1
11:55 1018 30.06 848 25.04 -12.3 9.8 56 -19.3 -2.8
12:00 1018 30.06 847 25.01 -12.2 10 58 -18.8 -1.9
12:05 1018 30.06 847 25.01 -12.3 9.9 57 -19.1 -2.3
12:10 1018 30.06 847 25.01 -12 10.3 56 -19.1 -2.3
12:15 1018 30.06 847 25.01 -11.8 10.8 53 -19.7 -3.4
12:20 1018 30.06 847 25.01 -12 10.4 53 -19.7 -3.4
12:25 1018 30.06 847 25.01 -11.7 10.9 54 -19.2 -2.6
12:30 1018 30.06 847 25.01 -10.9 12.3 53 -18.9 -2
12:35 1018 30.06 847 25.01 -11.5 11.3 50 -19.9 -3.7
12:40 1018 30.06 847 25.01 -11.4 11.4 54 -19 -2.2
12:45 1018 30.06 847 25.01 -10.7 12.7 50 -19.2 -2.5
12:50 1018 30.06 847 25.01 -11.6 11.1 53 -19.4 -3
12:55 1018 30.06 847 25.01 -12.2 10.1 56 -19.2 -2.6
13:00 1018 30.06 847 25.01 -11.9 10.5 56 -19.1 -2.4
13:05 1017 30.03 847 25.01 -10.9 12.4 53 -18.6 -1.5
13:10 1017 30.03 847 25.01 -10.6 13 52 -18.7 -1.6
13:15 1017 30.03 847 25.01 -10.1 13.8 52 -18.1 -0.6
13:20 1017 30.03 847 25.01 -10 14.1 50 -18.5 -1.4
13:25 1017 30.03 846 24.98 -10.1 13.8 50 -18.6 -1.5
13:30 1017 30.03 846 24.98 -10 13.9 53 -18 -0.4
13:35 1017 30.03 846 24.98 -9.3 15.2 50 -18 -0.4
13:40 1017 30.03 846 24.98 -9 15.9 51 -17.4 0.6
13:45 1017 30.03 846 24.98 -9 15.9 46 -18.5 -1.3
13:50 1017 30.03 846 24.98 -9.3 15.3 49 -18.2 -0.8
13:55 1017 30.03 846 24.98 -8.9 16.1 48 -18 -0.4
14:00 1017 30.03 846 24.98 -9.1 15.6 48 -18.2 -0.7
14:05 1017 30.03 846 24.98 -10 14 52 -18.1 -0.6
14:10 1017 30.03 846 24.98 -9.6 14.7 48 -18.6 -1.6
14:15 1017 30.03 846 24.98 -9.9 14.1 53 -17.8 -0.1
14:20 1017 30.03 846 24.98 -10 14.1 51 -18.2 -0.8
14:25 1017 30.03 846 24.98 -9.2 15.5 48 -18.3 -0.9
14:30 1017 30.03 846 24.98 -9.6 14.8 51 -17.9 -0.2
14:35 1017 30.03 846 24.98 -9.3 15.2 47 -18.6 -1.4
14:40 1017 30.03 846 24.98 -9.6 14.7 48 -18.8 -1.8
14:45 1017 30.03 846 24.98 -9.1 15.6 46 -18.7 -1.7
14:50 1016 30 846 24.98 -8.7 16.3 46 -18.2 -0.8
14:55 1016 30 846 24.98 -8.2 17.2 40 -19.5 -3
15:00 1017 30.03 846 24.98 -9 15.9 48 -18.1 -0.6
15:05 1017 30.03 846 24.98 -8.6 16.6 48 -17.8 -0.1
15:10 1017 30.03 846 24.98 -8.5 16.7 43 -19 -2.2
15:15 1017 30.03 846 24.98 -8.1 17.4 43 -18.6 -1.5
15:20 1016 30 846 24.98 -8.5 16.7 44 -18.6 -1.5
15:25 1016 30 846 24.98 -8.1 17.4 43 -18.6 -1.5
15:30 1016 30 846 24.98 -7.8 18 42 -18.5 -1.4
15:35 1016 30 846 24.98 -7.5 18.5 40 -19.1 -2.3
15:40 1016 30 845 24.95 -9.3 15.4 46 -19 -2.1
15:45 1016 30 846 24.98 -8.8 16.1 44 -18.9 -2
15:50 1016 30 845 24.95 -8.4 16.8 44 -18.7 -1.7
15:55 1016 30 845 24.95 -8.2 17.3 44 -18.3 -0.9
16:00 1016 30 845 24.95 -8 17.7 42 -18.6 -1.5
16:05 1016 30 845 24.95 -8 17.6 42 -18.8 -1.8
16:10 1016 30 845 24.95 -8.8 16.3 40 -20.1 -4.1
16:15 1016 30 845 24.95 -9.3 15.3 44 -19.4 -2.8
16:20 1016 30 845 24.95 -9.6 14.8 45 -19.4 -2.9
16:25 1016 30 845 24.95 -9.3 15.2 48 -18.5 -1.3
16:30 1016 30 845 24.95 -8.3 17 45 -18.1 -0.7
16:35 1016 30 845 24.95 -8.4 16.8 43 -19 -2.1
16:40 1016 30 845 24.95 -8.2 17.2 40 -19.5 -3.1
16:45 1016 30 845 24.95 -8.7 16.3 45 -18.7 -1.7
16:50 1016 30 845 24.95 -9.1 15.7 41 -20 -3.9
16:55 1016 30 845 24.95 -8.7 16.3 44 -19 -2.2
17:00 1016 30 845 24.95 -7.9 17.8 41 -19 -2.3
17:05 1016 30 845 24.95 -8.5 16.8 41 -19.5 -3.2
17:10 1016 30 845 24.95 -8.4 16.9 39 -20 -4
17:15 1016 30 845 24.95 -8 17.7 39 -19.5 -3.2
17:20 1015 29.97 845 24.95 -7.7 18.1 39 -19.5 -3.2
17:25 1016 30 845 24.95 -7.4 18.7 37 -19.6 -3.4
17:30 1016 30 845 24.95 -7.2 19.1 38 -19.3 -2.8
17:35 1015 29.97 845 24.95 -7.5 18.4 38 -19.4 -3
17:40 1015 29.97 845 24.95 -8.2 17.2 41 -19.4 -2.9
17:45 1015 29.97 845 24.95 -8.6 16.5 40 -19.9 -3.8
17:50 1015 29.97 845 24.95 -9.1 15.6 42 -19.8 -3.6
17:55 1015 29.97 845 24.95 -9.1 15.7 41 -20 -4
18:00 1015 29.97 845 24.95 -9 15.7 45 -19 -2.2
18:05 1016 30 845 24.95 -9 15.7 43 -19.4 -3
18:10 1016 30 845 24.95 -8.8 16.1 41 -19.7 -3.5
18:15 1016 30 845 24.95 -8 17.6 37 -20.2 -4.4
18:20 1016 30 845 24.95 -8.4 17 40 -19.6 -3.3
18:25 1016 30 845 24.95 -7.7 18.1 37 -19.9 -3.9
18:30 1016 30 845 24.95 -8 17.5 41 -19.2 -2.5
18:35 1016 30 845 24.95 -8.2 17.2 39 -19.9 -3.7
18:40 1016 30 845 24.95 -7.9 17.9 40 -19.3 -2.7
18:45 1016 30 845 24.95 -8.3 17.1 40 -19.8 -3.6
18:50 1016 30 845 24.95 -8.3 17 40 -19.6 -3.4
18:55 1016 30 845 24.95 -8.5 16.8 41 -19.5 -3.1
19:00 1016 30 845 24.95 -8.6 16.5 42 -19.3 -2.8
19:05 1016 30 845 24.95 -8.7 16.3 41 -19.7 -3.4
19:10 1016 30 845 24.95 -9 15.8 42 -19.8 -3.7
19:15 1016 30 845 24.95 -9.2 15.4 41 -20.1 -4.1
19:20 1016 30 845 24.95 -9.3 15.2 43 -19.9 -3.7
19:25 1016 30 845 24.95 -9.4 15.2 42 -20 -3.9
19:30 1016 30 846 24.98 -9.4 15 44 -19.6 -3.3
19:35 1016 30 846 24.98 -9.6 14.7 50 -18.3 -0.9
19:40 1017 30.03 846 24.98 -10 14.1 52 -18.1 -0.6
19:45 1017 30.03 846 24.98 -10.3 13.5 53 -18.1 -0.6
19:50 1017 30.03 846 24.98 -10.4 13.2 53 -18.3 -0.9
19:55 1017 30.03 846 24.98 -10.6 12.9 54 -18.2 -0.8
20:00 1017 30.03 846 24.98 -10.5 13.1 54 -18.1 -0.6
20:05 1017 30.03 846 24.98 -10.4 13.3 56 -17.7 0.2
20:10 1017 30.03 846 24.98 -10.8 12.6 59 -17.4 0.7
20:15 1017 30.03 846 24.98 -11 12.3 59 -17.5 0.5
20:20 1017 30.03 846 24.98 -11.1 12.1 60 -17.4 0.8
20:25 1017 30.03 846 24.98 -11.4 11.4 62 -17.4 0.7
20:30 1017 30.03 846 24.98 -11.8 10.8 64 -17.3 0.8
20:35 1017 30.03 846 24.98 -11.8 10.7 64 -17.3 0.8
20:40 1017 30.03 846 24.98 -11.8 10.8 64 -17.3 0.8
20:45 1017 30.03 846 24.98 -11.9 10.6 65 -17.3 0.9
20:50 1017 30.03 846 24.98 -12.1 10.2 66 -17.2 1
20:55 1017 30.03 846 24.98 -12.3 9.9 66 -17.4 0.6
21:00 1017 30.03 846 24.98 -12.3 9.9 68 -17.1 1.2
21:05 1017 30.03 846 24.98 -12.4 9.6 69 -17.1 1.2
21:10 1017 30.03 846 24.98 -12.6 9.3 69 -17.1 1.2
21:15 1017 30.03 846 24.98 -12.8 9 70 -17.2 1.1
21:20 1017 30.03 846 24.98 -12.7 9.1 68 -17.6 0.4
21:25 1017 30.03 846 24.98 -12.7 9.1 66 -17.9 -0.1
21:30 1017 30.03 847 25.01 -12.8 9 66 -17.9 -0.1
21:35 1017 30.03 847 25.01 -12.8 8.9 64 -18.4 -1.1
21:40 1017 30.03 847 25.01 -12.9 8.7 64 -18.4 -1.2
21:45 1018 30.06 847 25.01 -13 8.5 64 -18.4 -1.2
21:50 1018 30.06 847 25.01 -13 8.7 63 -18.6 -1.5
21:55 1018 30.06 847 25.01 -12.9 8.9 63 -18.5 -1.2
22:00 1018 30.06 847 25.01 -12.8 8.9 63 -18.5 -1.2
22:05 1018 30.06 847 25.01 -12.9 8.8 63 -18.6 -1.4
22:10 1018 30.06 847 25.01 -13 8.7 62 -18.7 -1.7
22:15 1018 30.06 847 25.01 -13 8.7 62 -18.8 -1.8
22:20 1018 30.06 847 25.01 -13 8.5 62 -18.9 -2
22:25 1018 30.06 847 25.01 -13.1 8.4 63 -18.9 -1.9
22:30 1018 30.06 847 25.01 -13.4 8 63 -19 -2.2
22:35 1018 30.06 847 25.01 -13.5 7.7 63 -19.1 -2.4
22:40 1018 30.06 847 25.01 -13.5 7.7 63 -19.2 -2.6
22:45 1018 30.06 847 25.01 -13.4 7.8 62 -19.2 -2.6
22:50 1018 30.06 847 25.01 -13.4 7.9 62 -19.3 -2.7
22:55 1018 30.06 847 25.01 -13.3 8 62 -19.2 -2.5
23:00 1018 30.06 847 25.01 -13.3 8.1 63 -19 -2.2
23:05 1018 30.06 847 25.01 -13.3 8.2 62 -19.1 -2.4
23:10 1018 30.06 847 25.01 -13.2 8.3 62 -19 -2.2
23:15 1018 30.06 847 25.01 -13.3 8.1 63 -18.9 -2
23:20 1018 30.06 847 25.01 -13.4 7.9 64 -18.9 -2.1
23:25 1018 30.06 847 25.01 -13.5 7.7 64 -18.9 -2
23:30 1018 30.06 847 25.01 -13.8 7.2 64 -19.1 -2.4
23:35 1018 30.06 847 25.01 -13.9 7 64 -19.3 -2.8
23:40 1018 30.06 847 25.01 -13.9 7 63 -19.5 -3
23:45 1018 30.06 847 25.01 -14 6.8 63 -19.6 -3.3
23:50 1018 30.06 847 25.01 -14.1 6.6 63 -19.6 -3.3
23:55 1018 30.06 847 25.01 -14.1 6.7 63 -19.6 -3.3
24:00 1018 30.06 847 25.01 -14 6.8 63 -19.7 -3.5